KLAL

Lakeland Linder Regional Airport

Lakeland, Florida, USA
METAR KLAL 271150Z 11010G14KT 10SM BKN009 23/23 A2977
Observed Flight Rules
May-27 @ 11:50 UTC (15 minutes ago) Instrument Flight Rules
Wind Visibility Clouds
110° at 10 knots
 Gusting to 14 knots
10 miles
  • Broken at 900' AGL
Temperatures Readings
Current 23°C / 73°F
Dewpoint 23°C / 73°F
Humidity 100%
Altimeter 29.77" Hg
Pressure 1008 hPa
Elevation 43
METAR KLAL 271150Z 11010G14KT 10SM BKN009 23/23 A2977
Observed Flight Rules
May-27 @ 11:50 UTC
(15 minutes ago)
IFR
Wind Visibility
110° at 10 knots
 Gusting to 14 knots
10 miles
Clouds
  • Broken at 900' AGL
Temperature Dewpoint
23°C / 73°F 23°C / 73°F
Humidity Altimeter Pressure
100% 29.77" Hg 1008 hPa